Terminal Aerodrome Forecast
Issued by NWS

Home | Current Version | Previous Version | Text Only | Print | Product List | Glossary On
Versions: 1 2 3 4 5 6 7 8 9 10 11 12 13 14 15 16 17 18
000
FTUS44 KLIX 302339
TAFGPT
TAF
KGPT 302339Z 0100/0124 15014G18KT P6SM SCT030 SCT045 BKN070
     FM010500 26011KT P6SM SCT045 BKN080
     FM010900 29006KT P6SM SCT090=

USA.gov is the U.S. government's official web portal to all federal, state and local government web resources and services.